Details From NZAA - Auckland International
To NWWW - Noumea La Tontouta
Flight Number -
Tags Generated
Created
Modified
Stats Distance 1,005 nm / 1,862 km
Max Altitude 0 ft / 0 m
Waypoints 3
Social Downloads 0
Likes 0
Share VATSIM

Download

Looking for another format? Having issues loading an existing format? Contact us
Advertisement - Login to hide

Notes

Generated

Route

NZAA NULVI NWWW

ID Type Via Altitude Latitude Longitude Leg Dist Tot Dist Heading (true) Name
O NZAA APT - 0 ft / 0 m -37.01438˚ 174.77090˚ - 0 nm - -
NULVI FIX - 0 ft / 0 m -22.27389˚ 166.35611˚ 987 nm 987 nm 331° / 336° -
O NWWW APT - 0 ft / 0 m -22.00756˚ 166.20102˚ 18 nm 1005 nm 332° / 332° -

Altitude Profile

Advertisement - Login to hide

Weather


0- 5 10 15 20 25 30 35+ Temperature / ° C

Clouds and Precipitation
Forecast for 2017-12-12 12:00 UTC. Updated an hour ago

Ground ~20,000 ft ~40,000 ft Winds

NZAA

Details ICAO NZAA (AKL)
Name Auckland International
Region New Zealand and Antarctica
Timezone Pacific/Auckland (UTC+13.0)
Stats Elevation 23 ft / 7 m (AMSL)
Location -37.010794° 174.787331°
Runways 2
Magnetic Variation 19.833° E

METAR

NZAA 120830Z AUTO 23014KT 9999 FEW027/// 20/14 Q1012 NOSIG

Decode

TAF

Not found

Departure Runways

ID Width Length Bearing (true) Bearing (mag) Surface Threshold Offset Overrun Length
05L 157 ft / 48 m 10,844 ft / 3,305 m 70.91° 51.08° Concrete 1,240 ft / 378 m 460 ft / 140 m
05R 152 ft / 46 m 12,085 ft / 3,684 m 70.96° 51.13° Concrete 1,270 ft / 387 m 0 ft / 0 m
23L 152 ft / 46 m 12,085 ft / 3,684 m 250.94° 231.11° Concrete 0 ft / 0 m 0 ft / 0 m
23R 157 ft / 48 m 10,844 ft / 3,305 m 250.89° 231.06° Concrete 1,060 ft / 323 m 0 ft / 0 m

NWWW

Details ICAO NWWW (NOU)
Name Noumea La Tontouta
Region New Caledonia
Timezone Pacific/Noumea (UTC+11.0)
Stats Elevation 51 ft / 16 m (AMSL)
Location -22.014529° 166.213022°
Runways 1
Magnetic Variation 12.334° E

METAR

NWWW 120830Z AUTO VRB02KT 9999 SCT021 BKN044 OVC050 26/22 Q1009 NOSIG

Decode

TAF

TAF NWWW 120500Z 1206/1306 VRB02KT 9999 SCT050 TEMPO 1206/1209 SHRA SCT030TCU BECMG 1222/1224 20010KT PROB30 TEMPO 1221/1306 4000 SHRA SCT020CB

Decode

Destination Runways

ID Width Length Bearing (true) Bearing (mag) Surface Threshold Offset Overrun Length
11 148 ft / 45 m 10,666 ft / 3,251 m 121.21° 108.88° Asphalt 0 ft / 0 m 338 ft / 103 m
29 148 ft / 45 m 10,666 ft / 3,251 m 301.19° 288.86° Asphalt 0 ft / 0 m 354 ft / 108 m

Approach Navaids

Runway Type Ident Frequency Range Bearing (true) Bearing (mag) Slope Elevation
11 Localiser LT 109.90 MHz 18 nm / 33 km 120.69° 108.35° - 52 ft / 16 m (AMSL)
11 Glidescope LT 109.90 MHz 10 nm / 19 km 121.20° 108.87° 3.00° 24 ft / 7 m (AMSL)

Popular Alternatives